Time;durP1;ratioP1;P1;durP2;ratioP2;P2;SDS_P1;SDS_P2;PMS_P1;PMS_P2;Temp;Humidity;BMP_temperature;BMP_pressure;BME280_temperature;BME280_humidity;BME280_pressure;Samples;Min_cycle;Max_cycle;Signal;HPM_P1;HPM_P2
2022/07/31 00:00:09;;;;;;;5.20;4.77;;;17.30;99.90;;;;;;4943281;28;20183;-77
2022/07/31 00:02:35;;;;;;;4.37;3.97;;;17.10;99.90;;;;;;4959373;28;20732;-77
2022/07/31 00:05:02;;;;;;;4.93;4.53;;;17.10;99.90;;;;;;4975635;28;20257;-77
2022/07/31 00:07:27;;;;;;;5.00;4.50;;;17.10;99.90;;;;;;4959089;28;20188;-77
2022/07/31 00:09:54;;;;;;;5.13;4.60;;;17.20;99.90;;;;;;4959356;28;20172;-77
2022/07/31 00:12:21;;;;;;;5.07;4.67;;;17.20;99.90;;;;;;4959664;28;20196;-77
2022/07/31 00:14:47;;;;;;;5.20;4.70;;;17.20;99.90;;;;;;4975392;28;20179;-76
2022/07/31 00:17:12;;;;;;;5.03;4.50;;;17.20;99.90;;;;;;4975476;28;20180;-77
2022/07/31 00:19:38;;;;;;;4.77;4.37;;;17.00;99.90;;;;;;4943377;28;20179;-77
2022/07/31 00:22:04;;;;;;;5.17;4.77;;;17.00;99.90;;;;;;4959223;28;20200;-77
2022/07/31 00:24:29;;;;;;;5.13;4.63;;;17.00;99.90;;;;;;4959237;28;20200;-77
2022/07/31 00:26:55;;;;;;;5.40;4.90;;;17.00;99.90;;;;;;4959119;28;20171;-77
2022/07/31 00:29:21;;;;;;;5.07;4.57;;;17.00;99.90;;;;;;4992716;28;20176;-77
2022/07/31 00:31:46;;;;;;;5.37;4.87;;;17.00;99.90;;;;;;4992728;28;20196;-77
2022/07/31 00:34:12;;;;;;;5.37;4.87;;;16.90;99.90;;;;;;4959300;28;20182;-77
2022/07/31 00:36:38;;;;;;;5.57;4.90;;;16.80;99.90;;;;;;4974853;28;20214;-77
2022/07/31 00:39:04;;;;;;;6.43;4.83;;;16.70;99.90;;;;;;4975181;28;20198;-77
2022/07/31 00:41:56;;;;;;;5.10;4.63;;;16.60;99.90;;;;;;5032399;23;20258;-79
2022/07/31 00:44:21;;;;;;;4.80;4.40;;;16.80;99.90;;;;;;4970599;28;20192;-78
2022/07/31 00:46:47;;;;;;;6.20;5.03;;;16.70;99.90;;;;;;4959215;28;20721;-78
2022/07/31 00:49:13;;;;;;;4.97;4.47;;;16.60;99.90;;;;;;4975028;28;20175;-76
2022/07/31 00:51:39;;;;;;;5.23;4.70;;;16.60;99.90;;;;;;4958878;28;20195;-77
2022/07/31 00:54:07;;;;;;;5.77;4.60;;;16.60;99.90;;;;;;4959160;28;20267;-76
2022/07/31 00:56:32;;;;;;;4.90;4.50;;;16.50;99.90;;;;;;4958969;28;20171;-77
2022/07/31 00:58:58;;;;;;;5.73;5.00;;;16.50;99.90;;;;;;4975170;28;20187;-77
2022/07/31 01:01:24;;;;;;;5.57;4.77;;;16.50;99.90;;;;;;4958873;28;20211;-76
2022/07/31 01:03:50;;;;;;;5.53;4.90;;;16.50;99.90;;;;;;4974793;28;20262;-76
2022/07/31 01:06:15;;;;;;;5.47;4.97;;;16.60;99.90;;;;;;4992150;28;20255;-76
2022/07/31 01:08:41;;;;;;;5.57;5.07;;;16.70;99.90;;;;;;4959126;28;20318;-77
2022/07/31 01:11:21;;;;;;;5.83;5.17;;;16.70;99.90;;;;;;4960910;28;20233;-76
2022/07/31 01:13:56;;;;;;;5.40;4.90;;;16.60;99.90;;;;;;4978494;28;20168;-76
2022/07/31 01:16:25;;;;;;;6.23;4.90;;;16.60;99.90;;;;;;4962464;28;20233;-77
2022/07/31 01:18:54;;;;;;;5.23;4.80;;;16.50;99.90;;;;;;4962559;28;20936;-76
2022/07/31 01:21:34;;;;;;;5.97;5.37;;;16.60;99.90;;;;;;4978491;28;20716;-76
2022/07/31 01:24:41;;;;;;;5.43;4.93;;;16.60;99.90;;;;;;4978336;28;20171;-76
2022/07/31 01:27:31;;;;;;;5.93;5.00;;;16.50;99.90;;;;;;4901467;28;20245;-77
2022/07/31 01:30:01;;;;;;;5.50;5.00;;;16.40;99.90;;;;;;4964528;28;20180;-76
2022/07/31 01:32:40;;;;;;;5.67;5.10;;;16.40;99.90;;;;;;4962066;28;20195;-77
2022/07/31 01:35:14;;;;;;;7.87;5.37;;;16.50;99.90;;;;;;4962279;28;20278;-77
2022/07/31 01:37:43;;;;;;;5.30;4.90;;;16.50;99.90;;;;;;4978108;28;20199;-77
2022/07/31 01:40:37;;;;;;;5.83;5.33;;;16.60;99.90;;;;;;4978066;28;20182;-76
2022/07/31 01:43:11;;;;;;;5.50;5.00;;;16.60;99.90;;;;;;4974753;28;20222;-76
2022/07/31 01:45:39;;;;;;;5.40;4.80;;;16.70;99.90;;;;;;4962208;28;20196;-77
2022/07/31 01:48:06;;;;;;;5.27;4.80;;;16.80;99.90;;;;;;4961951;28;20275;-77
2022/07/31 01:50:33;;;;;;;6.37;5.10;;;16.90;99.90;;;;;;4946091;28;20171;-76
2022/07/31 01:52:59;;;;;;;5.67;5.10;;;16.90;99.90;;;;;;4961904;28;20231;-76
2022/07/31 01:55:27;;;;;;;5.27;4.77;;;16.90;99.90;;;;;;4977731;28;20643;-77
2022/07/31 01:57:54;;;;;;;5.60;5.10;;;16.90;99.90;;;;;;4977420;28;20206;-77
2022/07/31 02:00:20;;;;;;;5.33;4.83;;;16.80;99.90;;;;;;4977635;28;20318;-76
2022/07/31 02:02:48;;;;;;;5.30;4.80;;;16.80;99.90;;;;;;4961453;28;20294;-76
2022/07/31 02:05:16;;;;;;;5.47;4.90;;;16.90;99.90;;;;;;4945800;28;20693;-77
2022/07/31 02:07:43;;;;;;;5.37;4.90;;;16.90;99.90;;;;;;4977465;28;20167;-77
2022/07/31 02:10:11;;;;;;;5.43;4.93;;;16.90;99.90;;;;;;4961885;28;20202;-77
2022/07/31 02:12:37;;;;;;;5.43;5.03;;;16.80;99.90;;;;;;4961417;28;20199;-77
2022/07/31 02:15:06;;;;;;;7.40;5.30;;;16.80;99.90;;;;;;4977565;28;20176;-76
2022/07/31 02:17:34;;;;;;;5.80;5.30;;;16.80;99.90;;;;;;4961138;28;20176;-77
2022/07/31 02:20:02;;;;;;;5.07;4.63;;;16.80;99.90;;;;;;4994647;28;20186;-77
2022/07/31 02:22:28;;;;;;;5.40;4.90;;;16.80;99.90;;;;;;4976411;28;20294;-77
2022/07/31 02:24:54;;;;;;;5.67;5.17;;;16.90;99.90;;;;;;4945110;28;20298;-76
2022/07/31 02:27:21;;;;;;;6.80;5.17;;;16.90;99.90;;;;;;4960917;28;20616;-76
2022/07/31 02:29:48;;;;;;;5.60;5.00;;;17.00;99.90;;;;;;4961426;28;20212;-77
2022/07/31 02:32:16;;;;;;;6.33;4.83;;;16.90;99.90;;;;;;4945162;28;20250;-77
2022/07/31 02:34:43;;;;;;;5.87;5.37;;;16.90;99.90;;;;;;4977118;28;20180;-76
2022/07/31 02:37:12;;;;;;;5.83;5.33;;;16.90;99.90;;;;;;4960733;28;20227;-77
2022/07/31 02:39:39;;;;;;;6.23;5.57;;;16.80;99.90;;;;;;4976812;28;20191;-76
2022/07/31 02:42:05;;;;;;;5.90;5.30;;;16.90;99.90;;;;;;4976750;28;20219;-77
2022/07/31 02:44:33;;;;;;;5.80;5.30;;;16.90;99.90;;;;;;4944593;28;20266;-77
2022/07/31 02:47:01;;;;;;;5.67;5.17;;;16.80;99.90;;;;;;4976529;28;20214;-77
2022/07/31 02:49:28;;;;;;;5.83;5.30;;;16.80;99.90;;;;;;4961184;28;20190;-76
2022/07/31 02:51:55;;;;;;;6.00;5.27;;;16.70;99.90;;;;;;4976973;28;20195;-77
2022/07/31 02:54:23;;;;;;;5.43;4.60;;;16.70;99.90;;;;;;4960720;28;20179;-77
2022/07/31 02:56:50;;;;;;;5.17;4.77;;;16.60;99.90;;;;;;4976344;28;20567;-77
2022/07/31 02:59:16;;;;;;;5.43;4.93;;;16.60;99.90;;;;;;4960966;28;20238;-77
2022/07/31 03:01:42;;;;;;;5.90;5.30;;;16.60;99.90;;;;;;4960449;28;20203;-77
2022/07/31 03:04:07;;;;;;;5.40;4.93;;;16.60;99.90;;;;;;4976552;28;20182;-77
2022/07/31 03:06:33;;;;;;;5.40;5.00;;;16.60;99.90;;;;;;4976270;28;20282;-76
2022/07/31 03:08:58;;;;;;;6.00;5.40;;;16.60;99.90;;;;;;4960562;28;20199;-77
2022/07/31 03:11:24;;;;;;;5.57;5.07;;;16.70;99.90;;;;;;4960293;28;20186;-77
2022/07/31 03:13:52;;;;;;;5.77;5.20;;;16.70;99.90;;;;;;4976286;28;20551;-77
2022/07/31 03:16:19;;;;;;;5.80;5.30;;;16.70;99.90;;;;;;4960187;28;20183;-77
2022/07/31 03:18:46;;;;;;;5.90;5.30;;;16.70;99.90;;;;;;4960142;28;20187;-77
2022/07/31 03:21:12;;;;;;;5.70;5.03;;;16.70;99.90;;;;;;4976318;28;20253;-77
2022/07/31 03:23:38;;;;;;;5.80;5.30;;;16.60;99.90;;;;;;4993464;28;20545;-77
2022/07/31 03:26:04;;;;;;;5.90;5.40;;;16.60;99.90;;;;;;4976126;28;20682;-77
2022/07/31 03:28:32;;;;;;;5.83;5.00;;;16.40;99.90;;;;;;4976013;28;20238;-76
2022/07/31 03:30:57;;;;;;;5.43;4.87;;;16.50;99.90;;;;;;4976004;28;20191;-76
2022/07/31 03:33:23;;;;;;;6.27;5.30;;;16.50;99.90;;;;;;4976061;28;20192;-77
2022/07/31 03:35:49;;;;;;;5.67;5.17;;;16.40;99.90;;;;;;4943817;28;20180;-76
2022/07/31 03:38:15;;;;;;;6.30;5.10;;;16.40;99.90;;;;;;4975829;28;20183;-77
2022/07/31 03:40:41;;;;;;;5.27;4.77;;;16.50;99.90;;;;;;4976022;28;20721;-77
2022/07/31 03:43:06;;;;;;;6.00;5.23;;;16.40;99.90;;;;;;4975568;28;20219;-77
2022/07/31 03:45:36;;;;;;;5.77;5.27;;;16.30;99.90;;;;;;4959460;28;20581;-76
2022/07/31 03:48:02;;;;;;;5.40;4.90;;;16.30;99.90;;;;;;4959395;28;20242;-77
2022/07/31 03:50:27;;;;;;;6.07;5.53;;;16.30;99.90;;;;;;4959617;28;20187;-77
2022/07/31 03:52:53;;;;;;;5.50;5.00;;;16.40;99.90;;;;;;4959724;28;20202;-77
2022/07/31 03:55:19;;;;;;;7.93;5.50;;;16.30;99.90;;;;;;4975766;28;20183;-77
2022/07/31 03:57:45;;;;;;;6.20;5.60;;;16.30;99.90;;;;;;4959516;28;20562;-77
2022/07/31 04:00:11;;;;;;;5.97;5.37;;;16.30;99.90;;;;;;4975676;28;20176;-76
2022/07/31 04:02:37;;;;;;;5.80;5.30;;;16.30;99.90;;;;;;4975437;28;20230;-77
2022/07/31 04:05:03;;;;;;;6.07;5.57;;;16.30;99.90;;;;;;4975355;28;20219;-76
2022/07/31 04:07:29;;;;;;;6.17;5.60;;;16.30;99.90;;;;;;4959189;28;20629;-77
2022/07/31 04:09:55;;;;;;;5.87;5.37;;;16.30;99.90;;;;;;4959462;28;20274;-76
2022/07/31 04:12:20;;;;;;;6.43;5.83;;;16.30;99.90;;;;;;4959553;28;20210;-76
2022/07/31 04:14:46;;;;;;;6.00;5.40;;;16.40;99.90;;;;;;4959311;28;20237;-77
2022/07/31 04:17:12;;;;;;;5.93;5.40;;;16.50;99.90;;;;;;4975299;28;20210;-76
2022/07/31 04:19:38;;;;;;;6.27;5.67;;;16.40;99.90;;;;;;4959311;28;20654;-77
2022/07/31 04:22:04;;;;;;;5.83;5.33;;;16.40;99.90;;;;;;4959351;28;20203;-77
2022/07/31 04:24:30;;;;;;;6.17;5.40;;;16.40;99.90;;;;;;4975247;28;20183;-77
2022/07/31 04:26:56;;;;;;;5.83;5.23;;;16.40;99.90;;;;;;4959158;28;20190;-77
2022/07/31 04:29:22;;;;;;;5.87;5.20;;;16.50;99.90;;;;;;4992742;28;20202;-77
2022/07/31 04:31:47;;;;;;;7.43;5.97;;;16.40;99.90;;;;;;4959264;28;20234;-77
2022/07/31 04:34:13;;;;;;;5.60;5.10;;;16.50;99.90;;;;;;4943164;28;20275;-77
2022/07/31 04:36:38;;;;;;;6.30;5.70;;;16.50;99.90;;;;;;4959314;28;20182;-77
2022/07/31 04:39:04;;;;;;;6.47;5.80;;;16.40;99.90;;;;;;4943308;28;20207;-77
2022/07/31 04:41:30;;;;;;;5.60;5.20;;;16.50;99.90;;;;;;4959017;28;20692;-76
2022/07/31 04:43:59;;;;;;;5.77;5.27;;;16.40;99.90;;;;;;4975057;28;20180;-77
2022/07/31 04:46:25;;;;;;;5.87;5.20;;;16.40;99.90;;;;;;4994848;28;20204;-77
2022/07/31 04:48:50;;;;;;;5.40;5.00;;;16.30;99.90;;;;;;4962778;28;20230;-77
2022/07/31 04:51:21;;;;;;;5.57;5.07;;;16.40;99.90;;;;;;4962900;28;20214;-77
2022/07/31 04:53:48;;;;;;;5.50;5.00;;;16.50;99.90;;;;;;4996334;28;20183;-77
2022/07/31 04:56:40;;;;;;;5.63;5.20;;;16.40;99.90;;;;;;4978672;28;20184;-77
2022/07/31 04:59:11;;;;;;;5.90;5.30;;;16.30;99.90;;;;;;4978813;28;20179;-76
2022/07/31 05:01:38;;;;;;;5.63;5.13;;;16.40;99.90;;;;;;4978806;28;20233;-76
2022/07/31 05:04:05;;;;;;;5.37;4.97;;;16.40;99.90;;;;;;4962718;28;20187;-77
2022/07/31 05:06:39;;;;;;;6.40;5.73;;;16.40;99.90;;;;;;4963092;28;20254;-76
2022/07/31 05:09:07;;;;;;;5.80;5.20;;;16.40;99.90;;;;;;4981224;28;20178;-75
2022/07/31 05:11:34;;;;;;;5.83;5.23;;;16.40;99.90;;;;;;4980989;28;20215;-75
2022/07/31 05:14:02;;;;;;;5.87;5.20;;;16.40;99.90;;;;;;4981788;28;20530;-75
2022/07/31 05:16:28;;;;;;;6.00;5.50;;;16.50;99.90;;;;;;4981630;28;20180;-75
2022/07/31 05:18:54;;;;;;;6.33;5.83;;;16.60;99.90;;;;;;4981464;28;20222;-75
2022/07/31 05:21:20;;;;;;;6.27;5.40;;;16.60;99.90;;;;;;4981457;28;20215;-75
2022/07/31 05:23:47;;;;;;;6.23;5.63;;;16.70;99.90;;;;;;4965549;28;20187;-75
2022/07/31 05:26:14;;;;;;;5.70;5.30;;;16.70;99.90;;;;;;4965483;28;20282;-75
2022/07/31 05:28:40;;;;;;;6.30;5.70;;;16.70;99.90;;;;;;4981395;28;20253;-75
2022/07/31 05:31:07;;;;;;;5.93;5.43;;;16.80;99.90;;;;;;4966067;28;20179;-75
2022/07/31 05:33:33;;;;;;;6.87;5.40;;;16.80;99.90;;;;;;4999089;28;20282;-75
2022/07/31 05:35:59;;;;;;;6.33;5.80;;;16.90;99.90;;;;;;4981525;28;20242;-75
2022/07/31 05:38:26;;;;;;;6.63;6.03;;;17.00;99.90;;;;;;4981108;28;20187;-75
2022/07/31 05:40:52;;;;;;;6.07;5.47;;;17.00;99.90;;;;;;4949898;28;20247;-75
2022/07/31 05:43:18;;;;;;;6.27;5.67;;;17.00;99.90;;;;;;4981059;28;20251;-75
2022/07/31 05:45:45;;;;;;;6.20;5.60;;;17.00;99.90;;;;;;4965541;28;20759;-75
2022/07/31 05:48:12;;;;;;;6.47;5.70;;;17.10;99.90;;;;;;4998190;28;20179;-75
2022/07/31 05:50:41;;;;;;;6.30;5.80;;;17.20;99.90;;;;;;4998869;28;20183;-75
2022/07/31 05:53:06;;;;;;;6.50;5.90;;;17.20;99.90;;;;;;4965192;28;20199;-75
2022/07/31 05:55:32;;;;;;;6.73;6.13;;;17.30;99.90;;;;;;4965436;28;20186;-75
2022/07/31 05:57:57;;;;;;;5.97;5.47;;;17.40;99.90;;;;;;4962200;28;20722;-77
2022/07/31 06:00:23;;;;;;;4.87;4.37;;;17.60;99.90;;;;;;4947840;28;20190;-77
2022/07/31 06:02:49;;;;;;;5.57;5.07;;;18.20;99.90;;;;;;4947755;28;20207;-77
2022/07/31 06:05:14;;;;;;;4.40;4.10;;;18.40;99.90;;;;;;4963958;28;20207;-77
2022/07/31 06:07:40;;;;;;;4.20;3.80;;;18.70;99.90;;;;;;4947454;28;20176;-77
2022/07/31 06:10:06;;;;;;;6.97;5.47;;;19.20;99.90;;;;;;4963522;28;20186;-77
2022/07/31 06:12:32;;;;;;;4.90;4.50;;;19.20;99.90;;;;;;4946002;28;20195;-77
2022/07/31 06:14:58;;;;;;;6.23;5.73;;;19.30;99.90;;;;;;4962216;28;20207;-77
2022/07/31 06:17:24;;;;;;;5.73;5.13;;;19.50;99.90;;;;;;4946335;28;20530;-77
2022/07/31 06:19:50;;;;;;;6.57;5.97;;;19.50;99.90;;;;;;4945960;28;20184;-77
2022/07/31 06:22:15;;;;;;;6.03;5.53;;;19.50;99.90;;;;;;4945800;28;20218;-77
2022/07/31 06:24:41;;;;;;;6.47;5.87;;;19.50;99.90;;;;;;4961802;28;20207;-77
2022/07/31 06:27:06;;;;;;;5.00;4.60;;;19.60;99.90;;;;;;4945648;28;20188;-77
2022/07/31 06:29:32;;;;;;;5.93;5.43;;;19.60;99.90;;;;;;4962211;28;20172;-77
2022/07/31 06:31:58;;;;;;;5.97;5.43;;;19.60;99.90;;;;;;4978130;28;20582;-77
2022/07/31 06:34:24;;;;;;;6.97;5.83;;;19.60;99.90;;;;;;4962526;28;20294;-78
2022/07/31 06:36:50;;;;;;;6.47;5.80;;;19.60;99.90;;;;;;4978789;28;20176;-78
2022/07/31 06:39:16;;;;;;;6.63;6.03;;;19.50;99.90;;;;;;4979141;28;20232;-78
2022/07/31 06:41:47;;;;;;;6.73;6.07;;;19.50;99.90;;;;;;5021161;22;20200;-78
2022/07/31 06:44:15;;;;;;;6.32;5.80;;;19.60;99.90;;;;;;4946086;28;20266;-78
2022/07/31 06:46:41;;;;;;;6.90;5.68;;;19.70;99.90;;;;;;4994543;28;20289;-78
2022/07/31 06:49:07;;;;;;;6.25;5.65;;;19.70;99.90;;;;;;4961584;28;20217;-78
2022/07/31 06:51:32;;;;;;;6.13;5.57;;;19.80;99.90;;;;;;4961128;28;20175;-78
2022/07/31 06:53:59;;;;;;;5.93;4.82;;;19.80;99.90;;;;;;4977203;28;20199;-78
2022/07/31 06:56:24;;;;;;;4.80;4.40;;;19.90;99.90;;;;;;4977250;28;20179;-78
2022/07/31 06:58:50;;;;;;;5.28;4.38;;;20.10;99.90;;;;;;4961364;28;20176;-78
2022/07/31 07:01:16;;;;;;;5.95;4.70;;;20.10;99.90;;;;;;4994421;28;20183;-78
2022/07/31 07:03:41;;;;;;;5.15;4.60;;;20.20;99.90;;;;;;4945068;28;20584;-78
2022/07/31 07:06:07;;;;;;;4.75;4.20;;;20.30;99.90;;;;;;4960888;28;20206;-78
2022/07/31 07:08:32;;;;;;;4.80;4.30;;;20.30;99.90;;;;;;4976933;28;20211;-78
2022/07/31 07:10:58;;;;;;;6.70;4.10;;;20.40;99.90;;;;;;4944955;28;20176;-78
2022/07/31 07:13:25;;;;;;;8.32;4.40;;;20.50;99.90;;;;;;4960889;28;20592;-78
2022/07/31 07:15:51;;;;;;;4.38;3.97;;;20.60;99.90;;;;;;4961199;28;20246;-78
2022/07/31 07:18:17;;;;;;;4.43;4.05;;;20.70;99.90;;;;;;4976617;28;20218;-78
2022/07/31 07:20:43;;;;;;;4.95;4.45;;;20.80;99.90;;;;;;4961036;28;20211;-78
2022/07/31 07:23:08;;;;;;;4.55;4.15;;;20.80;99.90;;;;;;4960630;28;20667;-78
2022/07/31 07:25:34;;;;;;;4.53;4.10;;;20.80;99.90;;;;;;4960636;28;20209;-78
2022/07/31 07:28:00;;;;;;;4.38;3.85;;;20.90;99.90;;;;;;4960892;28;20186;-78
2022/07/31 07:30:27;;;;;;;4.18;3.63;;;21.00;99.90;;;;;;4976749;28;20176;-78
2022/07/31 07:32:53;;;;;;;3.92;3.53;;;21.00;99.90;;;;;;4945233;28;20203;-78
2022/07/31 07:35:20;;;;;;;3.72;3.40;;;21.10;99.90;;;;;;4944659;28;20184;-78
2022/07/31 07:37:46;;;;;;;5.35;3.60;;;21.10;99.90;;;;;;4976776;28;20172;-78
2022/07/31 07:40:13;;;;;;;3.85;3.20;;;21.20;99.90;;;;;;4960547;28;20536;-78
2022/07/31 07:42:38;;;;;;;4.50;3.47;;;21.20;99.90;;;;;;4960668;28;20215;-78
2022/07/31 07:45:04;;;;;;;3.55;3.22;;;21.30;99.90;;;;;;4960368;28;20582;-78
2022/07/31 07:47:30;;;;;;;3.72;3.42;;;21.30;99.90;;;;;;4960595;28;20665;-78
2022/07/31 07:49:55;;;;;;;4.60;3.42;;;21.30;99.90;;;;;;4960194;28;20186;-78
2022/07/31 07:52:22;;;;;;;3.70;3.15;;;21.30;99.90;;;;;;4944432;28;20207;-78
2022/07/31 07:54:47;;;;;;;3.67;3.38;;;21.30;99.90;;;;;;4976354;28;20203;-78
2022/07/31 07:57:17;;;;;;;4.25;3.60;;;21.30;99.90;;;;;;4960170;28;20677;-78
2022/07/31 07:59:43;;;;;;;3.67;3.38;;;21.20;99.90;;;;;;4976314;28;20179;-78
2022/07/31 08:02:11;;;;;;;3.45;3.15;;;21.30;99.90;;;;;;4960025;28;20201;-78
2022/07/31 08:04:36;;;;;;;6.03;3.78;;;21.50;99.90;;;;;;4975957;28;20622;-78
2022/07/31 08:07:02;;;;;;;4.13;3.47;;;21.70;99.90;;;;;;4959961;28;20693;-78
2022/07/31 08:09:29;;;;;;;5.03;3.53;;;21.90;99.90;;;;;;4975998;28;20616;-78
2022/07/31 08:11:54;;;;;;;3.80;3.50;;;22.00;99.90;;;;;;4943828;28;20274;-78
2022/07/31 08:14:20;;;;;;;3.60;3.30;;;22.20;99.90;;;;;;4943865;28;20274;-78
2022/07/31 08:16:46;;;;;;;3.75;3.40;;;22.40;99.90;;;;;;4975621;28;20227;-78
2022/07/31 08:19:11;;;;;;;5.28;3.60;;;22.40;99.90;;;;;;4975918;28;20290;-78
2022/07/31 08:21:38;;;;;;;5.90;3.58;;;22.40;99.90;;;;;;4975255;28;20176;-78
2022/07/31 08:24:04;;;;;;;4.38;3.60;;;22.30;99.90;;;;;;4993518;28;20195;-78
2022/07/31 08:29:14;;;;;;;4.53;3.78;;;22.70;99.90;;;;;;4978858;28;20569;-78
2022/07/31 08:31:39;;;;;;;4.22;3.88;;;22.90;99.90;;;;;;4975510;28;20642;-78
2022/07/31 08:34:05;;;;;;;5.10;4.07;;;23.00;99.90;;;;;;4960019;28;20171;-78
2022/07/31 08:36:32;;;;;;;5.20;4.07;;;23.10;99.90;;;;;;4959756;28;20661;-78
2022/07/31 08:38:57;;;;;;;4.80;3.97;;;23.10;99.90;;;;;;4959807;28;20179;-78
2022/07/31 08:41:23;;;;;;;4.32;3.67;;;23.10;99.90;;;;;;4943631;28;20183;-78
2022/07/31 08:43:49;;;;;;;7.35;4.03;;;23.10;99.90;;;;;;4992762;28;20218;-78
2022/07/31 08:46:15;;;;;;;5.13;3.53;;;23.10;99.90;;;;;;4959255;28;20597;-78
2022/07/31 08:48:42;;;;;;;5.82;3.75;;;23.20;99.90;;;;;;4992735;28;20247;-78
2022/07/31 08:51:11;;;;;;;4.57;4.18;;;23.40;99.90;;;;;;4975412;28;20255;-78
2022/07/31 08:53:38;;;;;;;5.72;3.90;;;23.50;99.90;;;;;;4959725;28;20214;-78
2022/07/31 08:56:07;;;;;;;5.50;3.60;;;23.70;99.90;;;;;;4975408;28;20186;-78
2022/07/31 08:58:33;;;;;;;4.90;3.85;;;23.90;99.90;;;;;;4959119;28;20180;-78
2022/07/31 09:00:59;;;;;;;6.20;3.50;;;24.10;99.90;;;;;;4959411;28;20180;-78
2022/07/31 09:03:25;;;;;;;4.18;3.75;;;24.20;99.90;;;;;;4975392;28;20188;-78
2022/07/31 09:05:51;;;;;;;5.15;3.35;;;24.30;99.90;;;;;;4959192;28;20712;-78
2022/07/31 09:08:16;;;;;;;3.60;3.20;;;24.20;99.90;;;;;;4943380;28;20190;-78
2022/07/31 09:10:42;;;;;;;6.93;3.30;;;24.60;99.90;;;;;;4959547;28;20176;-78
2022/07/31 09:13:16;;;;;;;3.85;3.05;;;24.70;99.90;;;;;;4975518;28;20187;-78
2022/07/31 09:15:42;;;;;;;3.03;2.72;;;24.50;99.90;;;;;;4959295;28;20190;-78
2022/07/31 09:18:20;;;;;;;3.67;2.72;;;24.30;99.90;;;;;;4975467;28;20183;-78
2022/07/31 09:20:55;;;;;;;3.35;2.80;;;24.30;99.90;;;;;;4975319;28;20222;-78
2022/07/31 09:23:21;;;;;;;4.60;3.17;;;24.20;99.90;;;;;;4975116;28;20673;-78
2022/07/31 09:26:02;;;;;;;3.55;3.25;;;24.40;99.90;;;;;;4958915;28;20207;-78
2022/07/31 09:28:42;;;;;;;4.70;3.40;;;24.40;99.90;;;;;;4959289;28;20559;-78
2022/07/31 09:31:10;;;;;;;3.15;2.95;;;24.40;99.90;;;;;;4975726;28;20542;-78
2022/07/31 09:33:38;;;;;;;3.38;2.83;;;24.50;99.90;;;;;;4978696;28;20191;-78
2022/07/31 09:36:05;;;;;;;4.70;3.10;;;24.40;99.90;;;;;;4978634;28;20203;-78
2022/07/31 09:38:39;;;;;;;5.00;2.92;;;24.50;99.90;;;;;;4978214;28;20184;-78
2022/07/31 09:41:13;;;;;;;2.92;2.63;;;24.50;99.90;;;;;;4978933;28;20186;-78
2022/07/31 09:43:40;;;;;;;3.97;2.95;;;24.50;99.90;;;;;;4962126;28;20241;-78
2022/07/31 09:46:07;;;;;;;3.72;2.55;;;24.40;99.90;;;;;;4996180;28;20286;-78
2022/07/31 09:48:34;;;;;;;4.13;3.00;;;24.30;99.90;;;;;;4978294;28;20546;-78
2022/07/31 09:51:02;;;;;;;2.90;2.60;;;24.30;99.90;;;;;;4962578;28;20176;-78
2022/07/31 09:53:44;;;;;;;4.47;2.80;;;24.40;99.90;;;;;;4978520;28;20199;-78
2022/07/31 09:56:14;;;;;;;4.20;2.67;;;24.70;99.90;;;;;;4978505;28;20207;-78
2022/07/31 09:58:41;;;;;;;3.30;2.63;;;25.00;99.90;;;;;;4962954;28;20215;-78
2022/07/31 10:01:11;;;;;;;3.00;2.70;;;25.10;99.90;;;;;;4946443;28;20184;-78
2022/07/31 10:03:38;;;;;;;2.55;2.22;;;25.20;99.90;;;;;;4978410;28;20241;-78
2022/07/31 10:06:12;;;;;;;3.60;2.20;;;25.30;99.00;;;;;;4977990;28;20207;-78
2022/07/31 10:08:40;;;;;;;3.03;2.33;;;25.40;99.90;;;;;;4995578;28;20168;-78
2022/07/31 10:11:06;;;;;;;3.30;2.40;;;25.50;99.90;;;;;;4962077;28;20276;-78
2022/07/31 10:13:36;;;;;;;2.90;2.40;;;25.60;99.90;;;;;;4961559;28;20203;-78
2022/07/31 10:16:03;;;;;;;2.80;2.25;;;25.50;99.60;;;;;;4961892;28;20230;-78
2022/07/31 10:18:33;;;;;;;3.47;2.10;;;25.50;98.20;;;;;;4977462;28;20184;-78
2022/07/31 10:21:01;;;;;;;2.90;2.05;;;25.70;97.60;;;;;;4961910;28;20172;-78
2022/07/31 10:23:29;;;;;;;2.20;2.00;;;26.00;97.30;;;;;;4961488;28;20203;-78
2022/07/31 10:25:58;;;;;;;3.75;2.00;;;26.20;95.60;;;;;;4994904;28;20541;-78
2022/07/31 10:28:24;;;;;;;4.30;2.30;;;26.30;94.20;;;;;;4961135;28;20306;-78
2022/07/31 10:30:51;;;;;;;3.72;2.40;;;26.20;95.00;;;;;;4961651;28;20176;-78
2022/07/31 10:33:18;;;;;;;2.58;2.15;;;26.00;96.80;;;;;;4977408;28;20188;-78
2022/07/31 10:36:07;;;;;;;2.42;2.20;;;25.90;98.80;;;;;;4977800;28;20179;-78
2022/07/31 10:38:42;;;;;;;2.53;2.33;;;25.60;98.10;;;;;;4977227;28;20180;-78
2022/07/31 10:41:21;;;;;;;2.75;2.53;;;25.30;98.10;;;;;;4977367;28;20646;-78
2022/07/31 10:43:53;;;;;;;4.53;2.60;;;25.20;99.50;;;;;;4976438;28;20215;-78
2022/07/31 10:46:30;;;;;;;3.40;2.30;;;25.10;99.40;;;;;;4961140;28;20235;-78
2022/07/31 10:48:56;;;;;;;2.55;2.20;;;25.00;99.90;;;;;;4977260;28;20175;-78
2022/07/31 10:51:22;;;;;;;2.65;2.35;;;25.00;99.60;;;;;;4977325;28;20203;-78
2022/07/31 10:53:59;;;;;;;3.78;2.40;;;25.10;99.90;;;;;;4944839;28;20226;-78
2022/07/31 10:56:26;;;;;;;3.00;2.63;;;25.20;99.90;;;;;;4977065;28;20175;-78
2022/07/31 10:58:57;;;;;;;2.95;2.42;;;25.30;99.90;;;;;;4977225;28;20172;-78
2022/07/31 11:01:25;;;;;;;3.45;2.50;;;25.30;99.90;;;;;;4994439;28;20223;-78
2022/07/31 11:04:00;;;;;;;3.80;2.20;;;25.40;99.30;;;;;;4944694;28;20643;-78
2022/07/31 11:06:38;;;;;;;2.78;2.30;;;25.50;99.20;;;;;;4976761;28;20207;-78
2022/07/31 11:09:04;;;;;;;2.92;2.50;;;25.50;99.20;;;;;;4977113;28;20264;-78
2022/07/31 11:11:35;;;;;;;3.90;2.28;;;25.60;98.20;;;;;;4960660;28;20274;-78
2022/07/31 11:14:01;;;;;;;3.15;2.30;;;25.70;98.50;;;;;;4976527;28;20192;-78
2022/07/31 11:16:28;;;;;;;2.50;2.30;;;25.90;97.40;;;;;;4993880;28;20705;-78
2022/07/31 11:19:05;;;;;;;4.43;2.30;;;26.20;96.70;;;;;;4960700;28;20184;-78
2022/07/31 11:21:36;;;;;;;2.72;2.42;;;26.20;97.20;;;;;;4961193;28;20258;-78
2022/07/31 11:24:20;;;;;;;2.50;2.30;;;26.40;95.10;;;;;;4944437;28;20184;-78
2022/07/31 11:26:58;;;;;;;4.07;2.50;;;26.50;95.20;;;;;;4976022;28;20203;-78
2022/07/31 11:29:29;;;;;;;3.35;2.60;;;26.90;95.80;;;;;;4976531;28;20174;-78
2022/07/31 11:31:57;;;;;;;2.33;2.10;;;27.10;94.10;;;;;;4960101;28;20184;-78
2022/07/31 11:34:24;;;;;;;4.43;2.30;;;27.00;93.10;;;;;;4944616;28;20173;-78
2022/07/31 11:36:50;;;;;;;2.97;2.33;;;26.90;93.20;;;;;;4960489;28;20210;-78
2022/07/31 11:39:16;;;;;;;4.57;2.40;;;26.80;93.60;;;;;;4944025;28;20215;-78
2022/07/31 11:41:42;;;;;;;4.22;2.20;;;26.60;93.40;;;;;;4959737;28;20291;-78
2022/07/31 11:44:08;;;;;;;2.30;2.10;;;26.40;92.90;;;;;;4959658;28;20195;-78
2022/07/31 11:46:36;;;;;;;3.75;2.22;;;26.30;93.50;;;;;;4975707;28;20207;-78
2022/07/31 11:49:03;;;;;;;4.10;2.25;;;26.30;94.00;;;;;;4960037;28;20207;-78
2022/07/31 11:51:29;;;;;;;2.25;2.08;;;26.10;94.40;;;;;;4976048;28;20168;-78
2022/07/31 11:53:56;;;;;;;2.78;2.22;;;25.90;94.20;;;;;;4959733;28;20202;-78
2022/07/31 11:56:23;;;;;;;2.45;1.90;;;25.90;95.10;;;;;;4974877;28;20226;-78
2022/07/31 11:58:57;;;;;;;2.38;2.10;;;25.90;95.20;;;;;;4975992;28;20180;-78
2022/07/31 12:01:26;;;;;;;2.58;2.25;;;25.90;94.90;;;;;;4960009;28;20527;-78
2022/07/31 12:03:52;;;;;;;2.50;2.30;;;25.90;95.60;;;;;;4992921;28;20200;-78
2022/07/31 12:06:19;;;;;;;3.35;2.38;;;25.80;96.70;;;;;;4943376;28;20242;-78
2022/07/31 12:08:46;;;;;;;2.45;2.25;;;25.90;95.30;;;;;;4975913;28;20182;-78
2022/07/31 12:11:13;;;;;;;2.50;2.30;;;25.80;95.30;;;;;;4975546;28;20187;-78
2022/07/31 12:13:38;;;;;;;2.42;2.22;;;25.80;95.30;;;;;;4959649;28;20683;-78
2022/07/31 12:16:09;;;;;;;3.50;2.20;;;25.80;96.00;;;;;;4959402;28;20215;-78
2022/07/31 12:18:58;;;;;;;2.92;2.40;;;25.80;94.90;;;;;;4975396;28;20183;-78
2022/07/31 12:21:32;;;;;;;4.43;2.42;;;25.90;95.10;;;;;;4975603;28;20684;-78
2022/07/31 12:23:58;;;;;;;3.08;2.22;;;25.80;94.60;;;;;;4959444;28;20287;-78
2022/07/31 12:26:31;;;;;;;2.15;2.00;;;25.70;95.10;;;;;;4959036;28;20203;-78
2022/07/31 12:29:08;;;;;;;2.78;2.50;;;25.70;95.20;;;;;;4959909;28;20175;-78
2022/07/31 12:31:49;;;;;;;2.80;2.50;;;25.70;96.10;;;;;;4959604;28;20688;-78
2022/07/31 12:34:29;;;;;;;7.88;2.78;;;25.80;97.10;;;;;;4943741;28;20175;-78
2022/07/31 12:37:02;;;;;;;2.67;2.20;;;25.90;96.60;;;;;;4975168;28;20278;-78
2022/07/31 12:39:29;;;;;;;2.15;2.00;;;25.90;95.30;;;;;;4975504;28;20187;-78
2022/07/31 12:41:58;;;;;;;2.78;1.98;;;26.00;95.10;;;;;;4959421;28;20195;-78
2022/07/31 12:44:23;;;;;;;2.30;2.10;;;26.10;95.10;;;;;;4975120;28;20179;-77
2022/07/31 12:46:49;;;;;;;3.03;2.00;;;26.20;93.90;;;;;;4959012;28;20207;-78
2022/07/31 12:49:15;;;;;;;2.65;1.90;;;26.30;93.40;;;;;;4959140;28;20337;-78
2022/07/31 12:51:41;;;;;;;4.07;2.22;;;26.30;93.00;;;;;;4959107;28;20180;-78
2022/07/31 12:54:08;;;;;;;2.45;2.03;;;26.50;93.20;;;;;;4942995;28;20176;-78